createdAt,value
2018-12-17T00:00:40.717Z,6.23
2018-12-17T00:03:07.005Z,5.77
2018-12-17T00:05:33.535Z,5.57
2018-12-17T00:08:00.043Z,5.20
2018-12-17T00:10:26.297Z,4.63
2018-12-17T00:12:52.562Z,5.13
2018-12-17T00:15:18.858Z,5.30
2018-12-17T00:17:45.140Z,4.73
2018-12-17T00:20:11.555Z,4.00
2018-12-17T00:22:37.816Z,5.13
2018-12-17T00:25:04.620Z,6.20
2018-12-17T00:27:30.841Z,5.83
2018-12-17T00:29:57.142Z,5.40
2018-12-17T00:32:23.380Z,4.80
2018-12-17T00:34:49.661Z,5.30
2018-12-17T00:37:15.910Z,6.60
2018-12-17T00:39:42.186Z,5.13
2018-12-17T00:42:08.455Z,5.33
2018-12-17T00:44:34.813Z,5.10
2018-12-17T00:47:01.154Z,5.20
2018-12-17T00:49:27.474Z,4.27
2018-12-17T00:51:53.760Z,4.13
2018-12-17T00:54:20.036Z,5.07
2018-12-17T00:56:46.331Z,7.30
2018-12-17T00:59:12.609Z,5.37
2018-12-17T01:01:38.866Z,5.00
2018-12-17T01:04:05.189Z,4.87
2018-12-17T01:06:31.473Z,5.40
2018-12-17T01:08:57.804Z,4.03
2018-12-17T01:11:24.072Z,5.07
2018-12-17T01:13:50.371Z,4.37
2018-12-17T01:16:16.630Z,4.43
2018-12-17T01:18:42.992Z,4.33
2018-12-17T01:21:09.219Z,7.70
2018-12-17T01:23:35.463Z,8.80
2018-12-17T01:26:01.774Z,10.10
2018-12-17T01:28:28.047Z,9.90
2018-12-17T01:30:54.354Z,8.17
2018-12-17T01:33:20.640Z,8.80
2018-12-17T01:35:46.937Z,7.20
2018-12-17T01:38:13.238Z,8.70
2018-12-17T01:40:39.532Z,7.73
2018-12-17T01:43:05.962Z,7.13
2018-12-17T01:45:32.247Z,6.03
2018-12-17T01:47:59.639Z,5.50
2018-12-17T01:50:25.919Z,4.90
2018-12-17T01:52:52.185Z,5.70
2018-12-17T01:55:18.409Z,12.40
2018-12-17T01:57:44.729Z,9.00
2018-12-17T02:00:11.120Z,7.63
2018-12-17T02:02:37.434Z,7.17
2018-12-17T02:05:03.931Z,6.83
2018-12-17T02:07:30.237Z,6.67
2018-12-17T02:09:56.600Z,6.67
2018-12-17T02:12:22.870Z,7.27
2018-12-17T02:14:49.174Z,6.77
2018-12-17T02:17:15.443Z,6.33
2018-12-17T02:19:41.701Z,8.37
2018-12-17T02:22:07.976Z,7.33
2018-12-17T02:24:34.311Z,6.57
2018-12-17T02:27:00.540Z,5.83
2018-12-17T02:29:26.816Z,5.30
2018-12-17T02:31:53.106Z,5.43
2018-12-17T02:34:19.386Z,5.10
2018-12-17T02:36:45.673Z,5.70
2018-12-17T02:39:11.948Z,6.27
2018-12-17T02:41:38.207Z,5.90
2018-12-17T02:44:04.929Z,6.73
2018-12-17T02:46:31.225Z,7.97
2018-12-17T02:48:57.509Z,6.27
2018-12-17T02:51:23.812Z,6.00
2018-12-17T02:53:50.163Z,5.33
2018-12-17T02:56:16.465Z,5.83
2018-12-17T02:58:44.130Z,6.67
2018-12-17T03:01:10.672Z,7.63
2018-12-17T03:03:37.034Z,7.70
2018-12-17T03:06:03.432Z,7.47
2018-12-17T03:08:29.698Z,8.03
2018-12-17T03:10:55.940Z,6.47
2018-12-17T03:13:22.199Z,7.07
2018-12-17T03:15:48.461Z,6.57
2018-12-17T03:18:14.750Z,5.73
2018-12-17T03:20:41.068Z,5.67
2018-12-17T03:23:07.349Z,8.20
2018-12-17T03:25:33.644Z,9.03
2018-12-17T03:27:59.884Z,6.90
2018-12-17T03:30:26.135Z,7.37
2018-12-17T03:32:52.379Z,5.63
2018-12-17T03:35:18.770Z,5.47
2018-12-17T03:37:45.017Z,5.57
2018-12-17T03:40:11.302Z,5.20
2018-12-17T03:42:37.600Z,5.10
2018-12-17T03:45:04.010Z,5.17
2018-12-17T03:47:30.302Z,7.53
2018-12-17T03:49:56.588Z,8.67
2018-12-17T03:52:22.928Z,7.37
2018-12-17T03:54:49.197Z,6.63
2018-12-17T03:57:15.453Z,5.67
2018-12-17T03:59:41.776Z,6.90
2018-12-17T04:02:08.078Z,8.33
2018-12-17T04:04:34.365Z,6.63
2018-12-17T04:07:01.702Z,6.20
2018-12-17T04:09:28.031Z,5.63
2018-12-17T04:11:54.394Z,7.13
2018-12-17T04:14:20.712Z,11.00
2018-12-17T04:16:47.059Z,9.50
2018-12-17T04:19:13.329Z,9.93
2018-12-17T04:21:39.633Z,9.37
2018-12-17T04:24:05.955Z,8.30
2018-12-17T04:26:32.338Z,10.53
2018-12-17T04:28:58.616Z,9.30
2018-12-17T04:31:24.993Z,6.60
2018-12-17T04:33:51.307Z,10.50
2018-12-17T04:36:17.574Z,10.07
2018-12-17T04:38:43.914Z,7.87
2018-12-17T04:41:10.212Z,8.20
2018-12-17T04:43:36.495Z,9.93
2018-12-17T04:46:02.888Z,7.40
2018-12-17T04:48:30.218Z,7.00
2018-12-17T04:50:56.489Z,6.50
2018-12-17T04:53:22.827Z,6.57
2018-12-17T04:55:49.062Z,10.30
2018-12-17T04:58:15.363Z,7.30
2018-12-17T05:00:41.658Z,8.77
2018-12-17T05:03:07.972Z,8.10
2018-12-17T05:05:34.279Z,7.17
2018-12-17T05:08:00.546Z,6.47
2018-12-17T05:10:26.884Z,9.03
2018-12-17T05:12:53.192Z,8.80
2018-12-17T05:15:19.506Z,7.83
2018-12-17T05:17:45.782Z,7.47
2018-12-17T05:20:12.123Z,9.87
2018-12-17T05:22:38.423Z,7.97
2018-12-17T05:25:05.145Z,6.83
2018-12-17T05:27:31.442Z,6.70
2018-12-17T05:29:57.872Z,5.73
2018-12-17T05:32:24.385Z,6.53
2018-12-17T05:34:50.649Z,6.00
2018-12-17T05:37:16.942Z,6.70
2018-12-17T05:39:43.251Z,6.17
2018-12-17T05:42:09.511Z,6.60
2018-12-17T05:44:35.770Z,6.70
2018-12-17T05:47:02.052Z,9.10
2018-12-17T05:49:28.323Z,6.13
2018-12-17T05:51:54.627Z,6.50
2018-12-17T05:54:20.924Z,5.53
2018-12-17T05:56:47.217Z,7.20
2018-12-17T05:59:13.539Z,5.60
2018-12-17T06:01:39.852Z,5.37
2018-12-17T06:04:06.106Z,8.50
2018-12-17T06:06:32.399Z,7.70
2018-12-17T06:08:58.720Z,7.80
2018-12-17T06:11:25.054Z,6.60
2018-12-17T06:13:51.353Z,6.80
2018-12-17T06:16:17.835Z,8.20
2018-12-17T06:18:44.369Z,6.90
2018-12-17T06:21:10.592Z,9.53
2018-12-17T06:23:36.850Z,9.33
2018-12-17T06:26:03.129Z,7.83
2018-12-17T06:28:29.462Z,9.47
2018-12-17T06:30:55.764Z,9.43
2018-12-17T06:33:22.090Z,7.77
2018-12-17T06:35:48.389Z,7.63
2018-12-17T06:38:14.662Z,9.17
2018-12-17T06:40:40.981Z,7.90
2018-12-17T06:43:07.245Z,7.97
2018-12-17T06:45:33.518Z,8.03
2018-12-17T06:47:59.785Z,9.93
2018-12-17T06:50:26.293Z,11.97
2018-12-17T06:52:52.623Z,11.90
2018-12-17T06:55:18.885Z,10.40
2018-12-17T06:57:45.635Z,9.60
2018-12-17T07:00:12.029Z,8.00
2018-12-17T07:02:38.279Z,13.23
2018-12-17T07:05:04.815Z,11.50
2018-12-17T07:07:31.133Z,9.53
2018-12-17T07:09:57.375Z,9.13
2018-12-17T07:12:23.741Z,8.83
2018-12-17T07:14:49.968Z,8.63
2018-12-17T07:17:16.229Z,9.90
2018-12-17T07:19:42.622Z,8.83
2018-12-17T07:22:08.921Z,8.87
2018-12-17T07:24:35.208Z,9.10
2018-12-17T07:27:01.575Z,8.53
2018-12-17T07:29:27.836Z,8.03
2018-12-17T07:31:54.118Z,8.13
2018-12-17T07:34:20.532Z,7.27
2018-12-17T07:36:46.835Z,7.10
2018-12-17T07:39:13.119Z,7.00
2018-12-17T07:41:39.385Z,7.27
2018-12-17T07:44:05.678Z,7.67
2018-12-17T07:46:32.092Z,6.80
2018-12-17T07:48:58.392Z,6.87
2018-12-17T07:51:24.685Z,20.57
2018-12-17T07:53:51.376Z,14.70
2018-12-17T07:56:17.658Z,12.10
2018-12-17T07:58:43.933Z,10.97
2018-12-17T08:01:10.209Z,10.40
2018-12-17T08:03:36.474Z,12.20
2018-12-17T08:06:03.077Z,10.63
2018-12-17T08:08:35.315Z,14.67
2018-12-17T08:10:57.766Z,14.63
2018-12-17T08:13:24.413Z,11.73
2018-12-17T08:15:50.824Z,11.60
2018-12-17T08:18:20.539Z,10.17
2018-12-17T08:20:47.463Z,12.43
2018-12-17T08:23:13.707Z,10.03
2018-12-17T08:25:39.982Z,8.33
2018-12-17T08:28:06.255Z,8.90
2018-12-17T08:30:32.518Z,8.60
2018-12-17T08:32:58.817Z,7.27
2018-12-17T08:35:25.164Z,5.73
2018-12-17T08:37:51.441Z,5.87
2018-12-17T08:40:17.728Z,5.87
2018-12-17T08:42:43.975Z,6.13
2018-12-17T08:45:10.323Z,6.33
2018-12-17T08:47:36.572Z,6.10
2018-12-17T08:50:03.912Z,5.37
2018-12-17T08:52:30.175Z,5.03
2018-12-17T08:54:56.672Z,5.07
2018-12-17T08:57:22.932Z,4.60
2018-12-17T08:59:49.175Z,4.60
2018-12-17T09:02:15.466Z,4.17
2018-12-17T09:04:41.752Z,7.40
2018-12-17T09:07:08.034Z,6.93
2018-12-17T09:09:34.338Z,7.87
2018-12-17T09:12:00.571Z,6.23
2018-12-17T09:14:26.862Z,6.53
2018-12-17T09:16:53.119Z,7.80
2018-12-17T09:19:19.401Z,5.30
2018-12-17T09:21:45.725Z,6.00
2018-12-17T09:24:12.004Z,7.00
2018-12-17T09:26:38.256Z,5.70
2018-12-17T09:29:04.599Z,4.90
2018-12-17T09:31:30.876Z,5.20
2018-12-17T09:33:57.156Z,5.10
2018-12-17T09:36:23.478Z,4.67
2018-12-17T09:38:49.730Z,4.15
2018-12-17T09:41:16.029Z,3.72
2018-12-17T09:43:42.297Z,4.60
2018-12-17T09:46:08.711Z,4.22
2018-12-17T09:48:34.957Z,4.42
2018-12-17T09:51:01.256Z,3.90
2018-12-17T09:53:27.565Z,3.47
2018-12-17T09:55:53.884Z,3.70
2018-12-17T09:58:20.180Z,3.25
2018-12-17T10:00:46.487Z,3.10
2018-12-17T10:03:12.805Z,3.50
2018-12-17T10:05:39.036Z,4.55
2018-12-17T10:08:05.341Z,3.70
2018-12-17T10:10:31.596Z,3.90
2018-12-17T10:12:57.892Z,3.15
2018-12-17T10:15:24.657Z,3.27
2018-12-17T10:17:50.902Z,3.17
2018-12-17T10:20:17.204Z,4.95
2018-12-17T10:22:43.511Z,3.12
2018-12-17T10:25:09.796Z,3.10
2018-12-17T10:27:36.070Z,2.80
2018-12-17T10:30:03.273Z,3.02
2018-12-17T10:32:29.544Z,2.63
2018-12-17T10:34:55.791Z,2.23
2018-12-17T10:37:22.087Z,2.50
2018-12-17T10:39:48.415Z,2.30
2018-12-17T10:42:14.671Z,2.00
2018-12-17T10:44:41.039Z,1.97
2018-12-17T10:47:07.330Z,1.80
2018-12-17T10:49:33.635Z,2.00
2018-12-17T10:51:59.986Z,1.80
2018-12-17T10:54:26.350Z,2.98
2018-12-17T10:56:52.617Z,2.65
2018-12-17T10:59:18.869Z,2.98
2018-12-17T11:01:52.023Z,3.40
2018-12-17T11:04:18.333Z,3.20
2018-12-17T11:06:44.764Z,4.15
2018-12-17T11:09:11.093Z,3.27
2018-12-17T11:11:37.342Z,3.12
2018-12-17T11:14:03.663Z,2.90
2018-12-17T11:16:29.945Z,2.67
2018-12-17T11:18:56.209Z,2.40
2018-12-17T11:21:22.538Z,2.75
2018-12-17T11:23:48.796Z,2.10
2018-12-17T11:26:15.083Z,2.42
2018-12-17T11:28:41.349Z,2.02
2018-12-17T11:31:07.609Z,2.20
2018-12-17T11:33:33.906Z,2.70
2018-12-17T11:36:00.276Z,2.80
2018-12-17T11:38:26.534Z,3.10
2018-12-17T11:40:52.843Z,3.30
2018-12-17T11:43:19.118Z,3.07
2018-12-17T11:45:45.750Z,2.90
2018-12-17T11:48:11.981Z,2.73
2018-12-17T11:50:38.286Z,3.00
2018-12-17T11:53:04.549Z,3.07
2018-12-17T11:55:30.874Z,3.10
2018-12-17T11:58:08.368Z,3.07
2018-12-17T12:00:34.876Z,4.00
2018-12-17T12:03:01.141Z,3.60
2018-12-17T12:05:27.381Z,3.30
2018-12-17T12:07:53.656Z,3.20
2018-12-17T12:10:19.920Z,3.67
2018-12-17T12:12:46.163Z,3.50
2018-12-17T12:15:12.472Z,3.60
2018-12-17T12:17:38.752Z,3.70
2018-12-17T12:20:05.244Z,3.37
2018-12-17T12:22:32.725Z,3.73
2018-12-17T12:24:59.146Z,3.30
2018-12-17T12:27:25.574Z,3.63
2018-12-17T12:29:52.066Z,3.40
2018-12-17T12:32:18.463Z,3.90
2018-12-17T12:34:44.695Z,3.57
2018-12-17T12:37:10.988Z,3.80
2018-12-17T12:39:37.201Z,3.80
2018-12-17T12:42:03.458Z,3.50
2018-12-17T12:44:29.708Z,3.30
2018-12-17T12:46:55.962Z,3.53
2018-12-17T12:49:29.152Z,3.80
2018-12-17T12:51:55.463Z,3.00
2018-12-17T12:54:21.796Z,3.30
2018-12-17T12:56:48.065Z,3.80
2018-12-17T12:59:14.384Z,4.00
2018-12-17T13:01:40.634Z,4.07
2018-12-17T13:04:06.927Z,3.87
2018-12-17T13:06:33.175Z,3.63
2018-12-17T13:08:59.434Z,3.80
2018-12-17T13:11:25.733Z,3.57
2018-12-17T13:13:51.980Z,3.30
2018-12-17T13:16:18.220Z,3.30
2018-12-17T13:18:44.501Z,3.50
2018-12-17T13:21:10.775Z,3.30
2018-12-17T13:23:37.036Z,3.67
2018-12-17T13:26:03.293Z,3.40
2018-12-17T13:28:29.540Z,3.63
2018-12-17T13:30:55.777Z,3.20
2018-12-17T13:33:22.060Z,3.60
2018-12-17T13:35:48.295Z,3.67
2018-12-17T13:38:14.590Z,3.43
2018-12-17T13:40:40.845Z,3.10
2018-12-17T13:43:07.080Z,3.50
2018-12-17T13:45:33.382Z,3.67
2018-12-17T13:47:59.680Z,3.03
2018-12-17T13:50:32.907Z,3.30
2018-12-17T13:53:01.224Z,3.80
2018-12-17T13:55:27.504Z,3.83
2018-12-17T13:57:53.819Z,3.50
2018-12-17T14:00:20.197Z,3.37
2018-12-17T14:02:46.449Z,3.50
2018-12-17T14:05:12.741Z,3.13
2018-12-17T14:07:39.022Z,3.93
2018-12-17T14:10:12.897Z,3.17
2018-12-17T14:12:39.157Z,3.17
2018-12-17T14:15:05.436Z,3.00
2018-12-17T14:17:35.671Z,2.80
2018-12-17T14:20:10.624Z,2.63
2018-12-17T14:22:36.905Z,2.57
2018-12-17T14:25:03.804Z,2.40
2018-12-17T14:27:30.116Z,2.47
2018-12-17T14:29:56.438Z,2.63
2018-12-17T14:32:22.751Z,2.47
2018-12-17T14:34:49.071Z,2.20
2018-12-17T14:37:15.370Z,2.00
2018-12-17T14:39:41.600Z,2.20
2018-12-17T14:42:07.853Z,1.90
2018-12-17T14:44:34.249Z,2.10
2018-12-17T14:47:00.823Z,1.90
2018-12-17T14:49:27.161Z,1.80
2018-12-17T14:51:53.579Z,1.90
2018-12-17T14:54:20.069Z,1.87
2018-12-17T14:56:46.311Z,2.00
2018-12-17T14:59:12.599Z,1.90
2018-12-17T15:01:38.902Z,2.33
2018-12-17T15:04:05.165Z,2.10
2018-12-17T15:06:31.432Z,2.10
2018-12-17T15:08:57.712Z,1.70
2018-12-17T15:11:24.029Z,2.00
2018-12-17T15:13:50.302Z,1.73
2018-12-17T15:16:16.576Z,1.80
2018-12-17T15:18:42.853Z,1.20
2018-12-17T15:21:09.089Z,1.43
2018-12-17T15:23:35.409Z,1.43
2018-12-17T15:26:01.920Z,1.60
2018-12-17T15:28:28.348Z,1.40
2018-12-17T15:30:54.832Z,1.20
2018-12-17T15:33:21.135Z,1.40
2018-12-17T15:35:47.420Z,1.30
2018-12-17T15:38:13.665Z,1.30
2018-12-17T15:40:39.978Z,1.40
2018-12-17T15:43:06.395Z,1.80
2018-12-17T15:45:32.784Z,1.50
2018-12-17T15:47:59.043Z,1.50
2018-12-17T15:50:25.337Z,1.50
2018-12-17T15:52:51.583Z,1.50
2018-12-17T15:55:17.820Z,1.60
2018-12-17T15:57:44.137Z,1.50
2018-12-17T16:00:10.598Z,1.70
2018-12-17T16:02:36.881Z,1.90
2018-12-17T16:05:03.399Z,1.80
2018-12-17T16:07:29.654Z,1.80
2018-12-17T16:09:55.908Z,2.10
2018-12-17T16:12:22.276Z,2.40
2018-12-17T16:14:48.579Z,2.20
2018-12-17T16:17:14.872Z,2.03
2018-12-17T16:19:41.141Z,2.13
2018-12-17T16:22:07.466Z,2.70
2018-12-17T16:24:33.875Z,2.73
2018-12-17T16:27:00.153Z,3.00
2018-12-17T16:29:26.470Z,3.20
2018-12-17T16:31:57.232Z,2.90
2018-12-17T16:34:21.128Z,3.03
2018-12-17T16:36:47.618Z,3.10
2018-12-17T16:39:13.893Z,3.53
2018-12-17T16:41:40.167Z,3.40
2018-12-17T16:44:06.494Z,4.07
2018-12-17T16:46:32.784Z,3.60
2018-12-17T16:48:59.116Z,3.10
2018-12-17T16:51:25.424Z,3.60
2018-12-17T16:53:51.688Z,4.23
2018-12-17T16:56:17.943Z,3.10
2018-12-17T16:58:44.248Z,3.00
2018-12-17T17:01:10.448Z,3.10
2018-12-17T17:03:36.867Z,3.10
2018-12-17T17:06:03.318Z,3.10
2018-12-17T17:08:29.614Z,4.23
2018-12-17T17:10:55.918Z,5.30
2018-12-17T17:13:22.326Z,5.40
2018-12-17T17:15:48.642Z,4.63
2018-12-17T17:18:14.924Z,4.33
2018-12-17T17:20:41.243Z,3.53
2018-12-17T17:23:07.546Z,3.63
2018-12-17T17:25:33.805Z,3.13
2018-12-17T17:28:00.318Z,2.90
2018-12-17T17:30:26.601Z,3.10
2018-12-17T17:32:52.851Z,2.50
2018-12-17T17:35:19.141Z,2.47
2018-12-17T17:37:45.392Z,3.47
2018-12-17T17:40:11.712Z,3.10
2018-12-17T17:42:37.973Z,3.07
2018-12-17T17:45:04.539Z,3.10
2018-12-17T17:47:30.842Z,2.80
2018-12-17T17:49:57.274Z,2.70
2018-12-17T17:52:23.544Z,2.90
2018-12-17T17:54:49.866Z,2.40
2018-12-17T17:57:16.126Z,3.43
2018-12-17T17:59:42.480Z,3.30
2018-12-17T18:02:08.750Z,2.73
2018-12-17T18:04:34.996Z,2.63
2018-12-17T18:07:01.334Z,2.37
2018-12-17T18:09:27.577Z,2.40
2018-12-17T18:11:53.870Z,2.20
2018-12-17T18:14:20.123Z,2.57
2018-12-17T18:16:46.766Z,2.73
2018-12-17T18:19:13.000Z,2.67
2018-12-17T18:21:39.244Z,2.63
2018-12-17T18:24:05.507Z,3.43
2018-12-17T18:26:31.779Z,3.50
2018-12-17T18:28:58.035Z,3.90
2018-12-17T18:31:24.501Z,3.43
2018-12-17T18:33:50.796Z,4.00
2018-12-17T18:36:17.101Z,4.23
2018-12-17T18:38:43.381Z,4.50
2018-12-17T18:41:09.612Z,4.10
2018-12-17T18:43:35.894Z,3.73
2018-12-17T18:46:02.175Z,3.63
2018-12-17T18:48:28.616Z,3.43
2018-12-17T18:50:54.883Z,3.10
2018-12-17T18:53:21.183Z,3.23
2018-12-17T18:55:47.501Z,3.40
2018-12-17T18:58:13.795Z,4.47
2018-12-17T19:00:40.096Z,4.27
2018-12-17T19:03:06.621Z,3.97
2018-12-17T19:05:33.755Z,5.00
2018-12-17T19:08:00.012Z,6.60
2018-12-17T19:10:28.282Z,8.07
2018-12-17T19:12:54.545Z,8.93
2018-12-17T19:15:20.798Z,7.70
2018-12-17T19:17:47.119Z,36.20
2018-12-17T19:20:13.356Z,39.00
2018-12-17T19:22:39.604Z,35.50
2018-12-17T19:25:05.991Z,29.23
2018-12-17T19:27:32.248Z,23.00
2018-12-17T19:29:58.519Z,17.67
2018-12-17T19:32:24.812Z,14.07
2018-12-17T19:34:51.076Z,11.50
2018-12-17T19:37:17.398Z,8.87
2018-12-17T19:39:43.697Z,7.23
2018-12-17T19:42:09.964Z,7.50
2018-12-17T19:44:36.210Z,6.00
2018-12-17T19:47:02.522Z,5.60
2018-12-17T19:49:28.819Z,4.93
2018-12-17T19:51:55.076Z,4.30
2018-12-17T19:54:21.332Z,4.50
2018-12-17T19:56:47.584Z,5.13
2018-12-17T19:59:13.897Z,4.60
2018-12-17T20:01:40.242Z,4.83
2018-12-17T20:04:06.529Z,5.30
2018-12-17T20:06:32.853Z,5.83
2018-12-17T20:08:59.172Z,5.73
2018-12-17T20:11:25.450Z,5.27
2018-12-17T20:13:51.667Z,5.47
2018-12-17T20:16:17.980Z,5.33
2018-12-17T20:18:44.337Z,4.30
2018-12-17T20:21:10.591Z,3.93
2018-12-17T20:23:37.409Z,5.27
2018-12-17T20:26:03.659Z,4.77
2018-12-17T20:28:29.939Z,4.60
2018-12-17T20:30:56.218Z,6.53
2018-12-17T20:33:22.503Z,5.80
2018-12-17T20:35:48.752Z,4.93
2018-12-17T20:38:15.113Z,4.77
2018-12-17T20:40:41.386Z,4.93
2018-12-17T20:43:07.675Z,4.20
2018-12-17T20:45:33.947Z,4.60
2018-12-17T20:48:00.179Z,4.70
2018-12-17T20:50:26.585Z,4.17
2018-12-17T20:52:52.846Z,3.90
2018-12-17T20:55:19.093Z,3.77
2018-12-17T20:57:45.383Z,4.67
2018-12-17T21:00:11.711Z,3.70
2018-12-17T21:02:38.107Z,3.77
2018-12-17T21:05:04.621Z,3.60
2018-12-17T21:07:30.900Z,3.77
2018-12-17T21:09:57.183Z,3.90
2018-12-17T21:12:23.436Z,3.70
2018-12-17T21:14:49.746Z,4.10
2018-12-17T21:17:16.083Z,4.47
2018-12-17T21:19:42.416Z,5.03
2018-12-17T21:22:08.851Z,4.63
2018-12-17T21:24:35.086Z,4.90
2018-12-17T21:27:01.403Z,4.50
2018-12-17T21:29:27.663Z,4.57
2018-12-17T21:31:54.014Z,5.10
2018-12-17T21:34:20.280Z,4.60
2018-12-17T21:36:46.539Z,5.70
2018-12-17T21:39:12.852Z,4.73
2018-12-17T21:41:39.148Z,4.67
2018-12-17T21:44:05.416Z,4.67
2018-12-17T21:46:31.692Z,4.60
2018-12-17T21:48:57.974Z,4.07
2018-12-17T21:51:24.270Z,3.87
2018-12-17T21:53:50.555Z,3.90
2018-12-17T21:56:16.964Z,3.57
2018-12-17T21:58:43.267Z,3.20
2018-12-17T22:01:09.695Z,3.00
2018-12-17T22:03:35.955Z,3.23
2018-12-17T22:06:02.256Z,3.27
2018-12-17T22:08:28.488Z,4.00
2018-12-17T22:10:54.833Z,4.57
2018-12-17T22:13:21.161Z,4.07
2018-12-17T22:15:47.481Z,4.83
2018-12-17T22:18:13.717Z,3.90
2018-12-17T22:20:40.032Z,4.97
2018-12-17T22:23:06.471Z,6.83
2018-12-17T22:25:32.753Z,4.97
2018-12-17T22:27:59.065Z,4.50
2018-12-17T22:30:25.348Z,5.23
2018-12-17T22:32:51.661Z,4.77
2018-12-17T22:35:17.950Z,4.10
2018-12-17T22:37:45.293Z,4.53
2018-12-17T22:40:11.587Z,3.53
2018-12-17T22:42:37.888Z,3.70
2018-12-17T22:45:04.578Z,3.33
2018-12-17T22:47:30.864Z,3.50
2018-12-17T22:49:57.268Z,2.80
2018-12-17T22:52:23.563Z,2.90
2018-12-17T22:54:49.865Z,2.97
2018-12-17T22:57:16.159Z,3.00
2018-12-17T22:59:42.539Z,3.30
2018-12-17T23:02:08.856Z,3.60
2018-12-17T23:04:35.130Z,3.20
2018-12-17T23:07:01.409Z,3.43
2018-12-17T23:09:39.921Z,4.10
2018-12-17T23:12:18.262Z,3.90
2018-12-17T23:14:56.735Z,4.07
2018-12-17T23:17:35.140Z,3.27
2018-12-17T23:20:01.501Z,3.20
2018-12-17T23:22:27.844Z,4.30
2018-12-17T23:24:54.138Z,4.33
2018-12-17T23:27:20.397Z,5.30
2018-12-17T23:29:46.704Z,4.07
2018-12-17T23:32:12.977Z,4.33
2018-12-17T23:34:39.295Z,3.63
2018-12-17T23:37:05.553Z,4.40
2018-12-17T23:39:31.824Z,5.43
2018-12-17T23:41:58.072Z,5.50
2018-12-17T23:44:24.556Z,5.03
2018-12-17T23:46:50.900Z,4.43
2018-12-17T23:49:17.194Z,3.60
2018-12-17T23:51:43.643Z,3.90
2018-12-17T23:54:09.927Z,3.80
2018-12-17T23:56:36.192Z,3.10
2018-12-17T23:59:02.727Z,3.90
